createdAt,value
2018-01-13T00:00:22.810Z,3.70
2018-01-13T00:01:23.170Z,3.70
2018-01-13T00:02:23.049Z,3.69
2018-01-13T00:03:22.931Z,3.70
2018-01-13T00:04:22.829Z,3.70
2018-01-13T00:05:23.650Z,3.69
2018-01-13T00:06:44.832Z,3.70
2018-01-13T00:07:45.711Z,3.70
2018-01-13T00:08:45.127Z,3.69
2018-01-13T00:09:45.369Z,3.69
2018-01-13T00:11:05.835Z,3.70
2018-01-13T00:12:06.048Z,3.70
2018-01-13T00:13:06.270Z,3.70
2018-01-13T00:14:09.771Z,3.69
2018-01-13T00:15:10.145Z,3.70
2018-01-13T00:16:06.635Z,3.69
2018-01-13T00:17:05.946Z,3.68
2018-01-13T00:18:06.470Z,3.69
2018-01-13T00:19:06.411Z,3.69
2018-01-13T00:20:06.868Z,3.69
2018-01-13T00:21:06.084Z,3.69
2018-01-13T00:22:06.804Z,3.68
2018-01-13T00:23:06.036Z,3.70
2018-01-13T00:24:06.278Z,3.69
2018-01-13T00:25:06.579Z,3.69
2018-01-13T00:26:07.171Z,3.69
2018-01-13T00:27:06.217Z,3.69
2018-01-13T00:28:06.542Z,3.69
2018-01-13T00:29:06.884Z,3.70
2018-01-13T00:30:06.773Z,3.69
2018-01-13T00:31:06.500Z,3.69
2018-01-13T00:32:07.435Z,3.69
2018-01-13T00:33:07.233Z,3.69
2018-01-13T00:34:06.753Z,3.68
2018-01-13T00:35:06.617Z,3.68
2018-01-13T00:36:06.206Z,3.68
2018-01-13T00:37:06.716Z,3.66
2018-01-13T00:38:06.636Z,3.69
2018-01-13T00:39:06.577Z,3.68
2018-01-13T00:40:37.540Z,3.68
2018-01-13T00:41:34.132Z,3.66
2018-01-13T00:42:34.472Z,3.66
2018-01-13T00:43:33.772Z,3.68
2018-01-13T00:44:33.203Z,3.66
2018-01-13T00:45:34.059Z,3.68
2018-01-13T00:46:35.311Z,3.68
2018-01-13T00:47:33.710Z,3.66
2018-01-13T00:49:16.456Z,3.66
2018-01-13T00:50:20.025Z,3.65
2018-01-13T00:51:18.242Z,3.65
2018-01-13T00:52:22.902Z,3.65
2018-01-13T00:53:22.057Z,3.63
2018-01-13T00:54:20.760Z,3.62
2018-01-13T00:55:18.608Z,3.62
2018-01-13T00:56:17.948Z,3.62
2018-01-13T00:57:17.537Z,3.62
2018-01-13T00:58:59.656Z,3.60
2018-01-13T01:00:01.600Z,3.60
2018-01-13T01:01:02.497Z,3.58
2018-01-13T01:02:00.474Z,3.58
2018-01-13T01:03:03.249Z,3.58
2018-01-13T01:04:02.200Z,3.56
2018-01-13T01:04:59.502Z,3.58
2018-01-13T01:05:59.997Z,3.56
2018-01-13T01:06:59.523Z,3.55
2018-01-13T01:07:59.956Z,3.55
2018-01-13T01:09:01.695Z,3.55
2018-01-13T01:10:00.141Z,3.53
2018-01-13T01:11:24.168Z,3.53
2018-01-13T01:12:24.383Z,3.53
2018-01-13T01:13:23.219Z,3.50
2018-01-13T01:14:22.942Z,3.51
2018-01-13T01:15:23.555Z,3.50
2018-01-13T01:16:22.780Z,3.51
2018-01-13T01:17:23.215Z,3.50
2018-01-13T01:18:43.778Z,3.51
2018-01-13T01:19:44.611Z,3.50
2018-01-13T01:20:44.241Z,3.48
2018-01-13T01:21:45.040Z,3.48
2018-01-13T01:22:45.012Z,3.51
2018-01-13T01:23:44.442Z,3.50
2018-01-13T01:24:43.848Z,3.48
2018-01-13T01:25:44.550Z,3.48
2018-01-13T01:26:44.042Z,3.48
2018-01-13T01:27:44.858Z,3.48
2018-01-13T01:28:44.741Z,3.48
2018-01-13T01:30:05.515Z,3.48
2018-01-13T01:31:27.791Z,3.48
2018-01-13T01:32:27.684Z,3.47
2018-01-13T01:33:27.811Z,3.48
2018-01-13T01:34:27.335Z,3.48
2018-01-13T01:35:28.266Z,3.47
2018-01-13T01:36:28.345Z,3.48
2018-01-13T01:37:28.188Z,3.47
2018-01-13T01:38:27.479Z,3.45
2018-01-13T01:39:27.984Z,3.47
2018-01-13T01:40:27.201Z,3.48
2018-01-13T01:41:27.728Z,3.47
2018-01-13T01:42:27.208Z,3.47
2018-01-13T01:43:29.125Z,3.48
2018-01-13T01:44:28.115Z,3.48
2018-01-13T01:45:27.525Z,3.47
2018-01-13T01:46:27.979Z,3.47
2018-01-13T01:47:27.422Z,3.47
2018-01-13T01:48:27.940Z,3.48
2018-01-13T01:49:27.667Z,3.48
2018-01-13T01:50:27.386Z,3.48
2018-01-13T01:51:28.098Z,3.47
2018-01-13T01:52:27.819Z,3.47
2018-01-13T01:53:27.524Z,3.47
2018-01-13T01:54:28.014Z,3.48
2018-01-13T01:55:27.527Z,3.48
2018-01-13T01:56:26.958Z,3.48
2018-01-13T01:57:27.038Z,3.48
2018-01-13T01:58:27.224Z,3.48
2018-01-13T01:59:27.748Z,3.48
2018-01-13T02:00:27.852Z,3.48
2018-01-13T02:01:27.417Z,3.48
2018-01-13T02:02:27.588Z,3.45
2018-01-13T02:03:49.630Z,3.47
2018-01-13T02:04:50.185Z,3.47
2018-01-13T02:05:49.424Z,3.47
2018-01-13T02:06:50.106Z,3.48
2018-01-13T02:07:49.413Z,3.48
2018-01-13T02:08:49.719Z,3.47
2018-01-13T02:09:50.335Z,3.45
2018-01-13T02:10:49.739Z,3.47
2018-01-13T02:11:50.157Z,3.47
2018-01-13T02:12:49.306Z,3.47
2018-01-13T02:13:50.260Z,3.47
2018-01-13T02:14:50.074Z,3.45
2018-01-13T02:15:49.303Z,3.45
2018-01-13T02:16:49.765Z,3.45
2018-01-13T02:17:50.265Z,3.47
2018-01-13T02:18:49.433Z,3.45
2018-01-13T02:19:50.372Z,3.47
2018-01-13T02:20:49.906Z,3.45
2018-01-13T02:21:50.209Z,3.47
2018-01-13T02:22:49.737Z,3.45
2018-01-13T02:23:50.475Z,3.44
2018-01-13T02:24:50.000Z,3.44
2018-01-13T02:25:49.316Z,3.41
2018-01-13T02:26:49.856Z,3.42
2018-01-13T02:27:50.051Z,3.45
2018-01-13T02:28:49.264Z,3.44
2018-01-13T02:29:49.874Z,3.42
2018-01-13T02:30:50.459Z,3.44
2018-01-13T02:31:49.681Z,3.42
2018-01-13T02:32:50.155Z,3.44
2018-01-13T02:33:49.694Z,3.44
2018-01-13T02:34:50.607Z,3.42
2018-01-13T02:35:50.376Z,3.42
2018-01-13T02:36:49.554Z,3.42
2018-01-13T02:37:49.774Z,3.44
2018-01-13T02:38:50.324Z,3.42
2018-01-13T02:39:50.019Z,3.41
2018-01-13T02:40:50.615Z,3.41
2018-01-13T02:41:49.964Z,3.42
2018-01-13T02:42:50.187Z,3.42
2018-01-13T02:43:49.791Z,3.41
2018-01-13T02:44:50.358Z,3.41
2018-01-13T02:45:49.610Z,3.41
2018-01-13T02:46:49.771Z,3.42
2018-01-13T02:47:50.649Z,3.42
2018-01-13T02:48:49.673Z,3.42
2018-01-13T02:49:50.371Z,3.42
2018-01-13T02:51:12.743Z,3.41
2018-01-13T02:52:34.251Z,3.41
2018-01-13T02:53:34.718Z,3.42
2018-01-13T02:54:35.111Z,3.41
2018-01-13T02:55:34.669Z,3.41
2018-01-13T02:56:35.426Z,3.42
2018-01-13T02:57:35.171Z,3.41
2018-01-13T02:58:56.844Z,3.40
2018-01-13T02:59:56.168Z,3.40
2018-01-13T03:00:56.542Z,3.40
2018-01-13T03:01:55.994Z,3.40
2018-01-13T03:02:56.772Z,3.40
2018-01-13T03:03:56.021Z,3.40
2018-01-13T03:04:56.749Z,3.40
2018-01-13T03:05:55.978Z,3.37
2018-01-13T03:06:56.258Z,3.40
2018-01-13T03:07:56.421Z,3.41
2018-01-13T03:08:57.022Z,3.41
2018-01-13T03:09:56.260Z,3.41
2018-01-13T03:10:56.460Z,3.40
2018-01-13T03:11:57.343Z,3.40
2018-01-13T03:12:56.474Z,3.41
2018-01-13T03:13:57.009Z,3.37
2018-01-13T03:14:56.098Z,3.40
2018-01-13T03:15:56.882Z,3.40
2018-01-13T03:16:56.571Z,3.41
2018-01-13T03:17:56.300Z,3.41
2018-01-13T03:18:56.692Z,3.40
2018-01-13T03:19:55.836Z,3.41
2018-01-13T03:20:55.882Z,3.41
2018-01-13T03:21:56.582Z,3.40
2018-01-13T03:22:56.924Z,3.41
2018-01-13T03:23:56.051Z,3.40
2018-01-13T03:24:56.895Z,3.41
2018-01-13T03:25:56.564Z,3.41
2018-01-13T03:26:56.396Z,3.42
2018-01-13T03:27:58.388Z,3.41
2018-01-13T03:28:57.054Z,3.41
2018-01-13T03:29:56.689Z,3.42
2018-01-13T03:31:05.556Z,3.42
2018-01-13T03:31:56.890Z,3.42
2018-01-13T03:32:56.512Z,3.42
2018-01-13T03:33:56.912Z,3.42
2018-01-13T03:34:56.158Z,3.42
2018-01-13T03:35:56.812Z,3.42
2018-01-13T03:36:56.339Z,3.44
2018-01-13T03:37:56.658Z,3.42
2018-01-13T03:38:57.232Z,3.42
2018-01-13T03:39:56.907Z,3.44
2018-01-13T03:40:56.134Z,3.44
2018-01-13T03:41:56.506Z,3.44
2018-01-13T03:42:56.912Z,3.44
2018-01-13T03:43:56.053Z,3.44
2018-01-13T03:44:56.547Z,3.45
2018-01-13T03:45:57.053Z,3.44
2018-01-13T03:46:56.414Z,3.47
2018-01-13T03:47:56.698Z,3.45
2018-01-13T03:48:56.177Z,3.45
2018-01-13T03:49:56.583Z,3.45
2018-01-13T03:50:56.031Z,3.47
2018-01-13T03:51:56.353Z,3.47
2018-01-13T03:52:57.208Z,3.45
2018-01-13T03:53:56.450Z,3.48
2018-01-13T03:54:56.122Z,3.47
2018-01-13T03:55:56.584Z,3.47
2018-01-13T03:56:55.856Z,3.47
2018-01-13T03:57:55.915Z,3.48
2018-01-13T03:58:56.147Z,3.47
2018-01-13T03:59:57.037Z,3.47
2018-01-13T04:00:56.355Z,3.48
2018-01-13T04:02:18.892Z,3.48
2018-01-13T04:03:19.613Z,3.47
2018-01-13T04:04:19.744Z,3.47
2018-01-13T04:05:19.336Z,3.48
2018-01-13T04:06:20.154Z,3.47
2018-01-13T04:07:19.891Z,3.47
2018-01-13T04:08:19.042Z,3.47
2018-01-13T04:09:20.263Z,3.47
2018-01-13T04:10:19.770Z,3.47
2018-01-13T04:11:20.046Z,3.48
2018-01-13T04:12:19.200Z,3.47
2018-01-13T04:13:19.738Z,3.48
2018-01-13T04:14:19.273Z,3.48
2018-01-13T04:16:02.213Z,3.48
2018-01-13T04:17:02.332Z,3.47
2018-01-13T04:18:02.410Z,3.47
2018-01-13T04:19:02.722Z,3.48
2018-01-13T04:20:02.460Z,3.48
2018-01-13T04:21:02.732Z,3.47
2018-01-13T04:22:02.394Z,3.47
2018-01-13T04:23:03.288Z,3.47
2018-01-13T04:24:02.906Z,3.48
2018-01-13T04:25:02.345Z,3.47
2018-01-13T04:26:02.637Z,3.47
2018-01-13T04:27:02.759Z,3.47
2018-01-13T04:28:02.523Z,3.47
2018-01-13T04:29:03.017Z,3.48
2018-01-13T04:30:02.246Z,3.48
2018-01-13T04:31:02.438Z,3.48
2018-01-13T04:32:02.653Z,3.47
2018-01-13T04:33:23.023Z,3.48
2018-01-13T04:34:23.565Z,3.48
2018-01-13T04:35:23.863Z,3.50
2018-01-13T04:36:23.549Z,3.48
2018-01-13T04:37:23.988Z,3.48
2018-01-13T04:38:23.210Z,3.48
2018-01-13T04:39:23.997Z,3.48
2018-01-13T04:40:23.775Z,3.48
2018-01-13T04:41:23.318Z,3.48
2018-01-13T04:42:23.798Z,3.48
2018-01-13T04:43:23.590Z,3.48
2018-01-13T04:44:24.525Z,3.47
2018-01-13T04:45:23.755Z,3.47
2018-01-13T04:46:24.365Z,3.47
2018-01-13T04:47:23.778Z,3.47
2018-01-13T04:48:44.793Z,3.47
2018-01-13T04:49:45.418Z,3.45
2018-01-13T04:50:44.517Z,3.45
2018-01-13T04:52:05.768Z,3.47
2018-01-13T04:53:06.252Z,3.48
2018-01-13T04:54:07.201Z,3.48
2018-01-13T04:55:06.416Z,3.48
2018-01-13T04:56:06.080Z,3.48
2018-01-13T04:57:06.330Z,3.48
2018-01-13T04:58:06.916Z,3.47
2018-01-13T04:59:06.057Z,3.47
2018-01-13T05:00:06.265Z,3.47
2018-01-13T05:01:07.280Z,3.47
2018-01-13T05:02:06.688Z,3.47
2018-01-13T05:03:06.309Z,3.48
2018-01-13T05:04:07.437Z,3.48
2018-01-13T05:05:06.935Z,3.47
2018-01-13T05:06:06.110Z,3.48
2018-01-13T05:07:49.583Z,3.48
2018-01-13T05:09:21.021Z,3.48
2018-01-13T05:09:49.566Z,3.51
2018-01-13T05:10:50.364Z,3.50
2018-01-13T05:11:49.756Z,3.48
2018-01-13T05:12:50.789Z,3.50
2018-01-13T05:13:49.987Z,3.51
2018-01-13T05:14:49.608Z,3.51
2018-01-13T05:15:50.301Z,3.53
2018-01-13T05:16:49.558Z,3.53
2018-01-13T05:17:49.925Z,3.53
2018-01-13T05:18:50.004Z,3.51
2018-01-13T05:19:50.419Z,3.53
2018-01-13T05:20:50.302Z,3.53
2018-01-13T05:21:49.536Z,3.53
2018-01-13T05:22:50.045Z,3.53
2018-01-13T05:23:49.211Z,3.51
2018-01-13T05:24:49.507Z,3.50
2018-01-13T05:25:50.166Z,3.51
2018-01-13T05:26:49.416Z,3.50
2018-01-13T05:27:50.163Z,3.51
2018-01-13T05:28:49.550Z,3.48
2018-01-13T05:29:49.835Z,3.50
2018-01-13T05:30:49.267Z,3.50
2018-01-13T05:31:49.798Z,3.51
2018-01-13T05:32:50.809Z,3.50
2018-01-13T05:33:50.270Z,3.50
2018-01-13T05:34:49.329Z,3.48
2018-01-13T05:35:49.607Z,3.50
2018-01-13T05:36:50.326Z,3.50
2018-01-13T05:37:49.783Z,3.48
2018-01-13T05:38:49.823Z,3.50
2018-01-13T05:39:50.649Z,3.50
2018-01-13T05:40:50.209Z,3.50
2018-01-13T05:41:49.316Z,3.48
2018-01-13T05:42:50.069Z,3.50
2018-01-13T05:43:49.803Z,3.48
2018-01-13T05:44:50.036Z,3.48
2018-01-13T05:45:49.633Z,3.47
2018-01-13T05:46:50.049Z,3.47
2018-01-13T05:47:50.336Z,3.47
2018-01-13T05:48:49.514Z,3.47
2018-01-13T05:49:49.752Z,3.47
2018-01-13T05:50:50.021Z,3.47
2018-01-13T05:51:49.694Z,3.45
2018-01-13T05:52:50.144Z,3.45
2018-01-13T05:53:49.820Z,3.44
2018-01-13T05:54:50.098Z,3.44
2018-01-13T05:55:50.142Z,3.44
2018-01-13T05:56:49.471Z,3.45
2018-01-13T05:57:49.608Z,3.45
2018-01-13T05:58:49.725Z,3.45
2018-01-13T05:59:50.124Z,3.45
2018-01-13T06:00:49.398Z,3.47
2018-01-13T06:01:49.946Z,3.45
2018-01-13T06:02:49.706Z,3.47
2018-01-13T06:03:49.960Z,3.47
2018-01-13T06:04:49.977Z,3.47
2018-01-13T06:06:10.984Z,3.47
2018-01-13T06:07:11.254Z,3.50
2018-01-13T06:08:12.155Z,3.48
2018-01-13T06:09:11.875Z,3.48
2018-01-13T06:10:11.392Z,3.50
2018-01-13T06:11:10.774Z,3.48
2018-01-13T06:12:11.348Z,3.48
2018-01-13T06:13:11.036Z,3.48
2018-01-13T06:14:11.094Z,3.48
2018-01-13T06:15:32.834Z,3.47
2018-01-13T06:16:33.309Z,3.48
2018-01-13T06:17:32.764Z,3.48
2018-01-13T06:18:54.894Z,3.50
2018-01-13T06:19:55.612Z,3.50
2018-01-13T06:20:55.323Z,3.51
2018-01-13T06:21:55.368Z,3.51
2018-01-13T06:22:54.727Z,3.53
2018-01-13T06:23:55.282Z,3.51
2018-01-13T06:24:55.330Z,3.51
2018-01-13T06:25:54.605Z,3.51
2018-01-13T06:26:55.288Z,3.53
2018-01-13T06:27:55.089Z,3.55
2018-01-13T06:28:55.603Z,3.56
2018-01-13T06:29:55.386Z,3.55
2018-01-13T06:30:54.711Z,3.56
2018-01-13T06:31:55.335Z,3.55
2018-01-13T06:33:16.191Z,3.55
2018-01-13T06:34:16.650Z,3.55
2018-01-13T06:35:37.974Z,3.55
2018-01-13T06:36:38.441Z,3.56
2018-01-13T06:37:37.722Z,3.56
2018-01-13T06:39:20.450Z,3.55
2018-01-13T06:40:20.829Z,3.55
2018-01-13T06:41:21.044Z,3.53
2018-01-13T06:42:21.245Z,3.53
2018-01-13T06:43:42.075Z,3.53
2018-01-13T06:44:42.882Z,3.55
2018-01-13T06:45:42.232Z,3.55
2018-01-13T06:46:42.860Z,3.53
2018-01-13T06:47:43.350Z,3.53
2018-01-13T06:48:42.674Z,3.53
2018-01-13T06:49:43.397Z,3.51
2018-01-13T06:51:25.502Z,3.51
2018-01-13T06:52:26.360Z,3.51
2018-01-13T06:53:25.854Z,3.53
2018-01-13T06:54:26.141Z,3.50
2018-01-13T06:55:25.464Z,3.50
2018-01-13T06:56:26.220Z,3.48
2018-01-13T06:57:26.481Z,3.50
2018-01-13T06:58:26.118Z,3.50
2018-01-13T06:59:47.844Z,3.48
2018-01-13T07:00:48.625Z,3.50
2018-01-13T07:01:48.150Z,3.48
2018-01-13T07:02:47.683Z,3.50
2018-01-13T07:03:47.985Z,3.50
2018-01-13T07:04:48.783Z,3.50
2018-01-13T07:05:48.500Z,3.48
2018-01-13T07:06:47.910Z,3.48
2018-01-13T07:07:48.070Z,3.47
2018-01-13T07:08:48.641Z,3.47
2018-01-13T07:09:49.446Z,3.47
2018-01-13T07:10:47.679Z,3.47
2018-01-13T07:11:48.198Z,3.47
2018-01-13T07:12:48.068Z,3.47
2018-01-13T07:13:48.201Z,3.47
2018-01-13T07:14:48.329Z,3.45
2018-01-13T07:15:47.872Z,3.45
2018-01-13T07:16:48.401Z,3.45
2018-01-13T07:17:47.987Z,3.45
2018-01-13T07:18:48.508Z,3.45
2018-01-13T07:19:48.060Z,3.45
2018-01-13T07:20:48.254Z,3.45
2018-01-13T07:21:47.521Z,3.45
2018-01-13T07:22:47.656Z,3.45
2018-01-13T07:23:47.852Z,3.47
2018-01-13T07:24:48.304Z,3.44
2018-01-13T07:26:32.254Z,3.44
2018-01-13T07:27:32.840Z,3.42
2018-01-13T07:28:33.761Z,3.42
2018-01-13T07:29:33.367Z,3.42
2018-01-13T07:30:42.302Z,3.42
2018-01-13T07:31:32.709Z,3.42
2018-01-13T07:32:33.117Z,3.42
2018-01-13T07:33:32.628Z,3.42
2018-01-13T07:34:33.592Z,3.42
2018-01-13T07:35:33.460Z,3.42
2018-01-13T07:36:33.012Z,3.42
2018-01-13T07:37:32.765Z,3.42
2018-01-13T07:38:33.363Z,3.41
2018-01-13T07:39:32.840Z,3.41
2018-01-13T07:40:33.542Z,3.41
2018-01-13T07:41:32.895Z,3.41
2018-01-13T07:42:33.936Z,3.40
2018-01-13T07:43:32.865Z,3.40
2018-01-13T07:44:54.832Z,3.41
2018-01-13T07:45:54.642Z,3.44
2018-01-13T07:46:54.299Z,3.42
2018-01-13T07:47:53.909Z,3.42
2018-01-13T07:48:54.233Z,3.41
2018-01-13T07:49:54.994Z,3.42
2018-01-13T07:50:54.743Z,3.42
2018-01-13T07:51:54.938Z,3.42
2018-01-13T07:52:54.416Z,3.42
2018-01-13T07:53:55.164Z,3.42
2018-01-13T07:54:54.562Z,3.42
2018-01-13T07:55:56.593Z,3.44
2018-01-13T07:56:53.956Z,3.45
2018-01-13T07:57:54.721Z,3.45
2018-01-13T07:58:53.943Z,3.47
2018-01-13T07:59:54.757Z,3.48
2018-01-13T08:00:54.884Z,3.50
2018-01-13T08:01:54.710Z,3.48
2018-01-13T08:02:54.705Z,3.53
2018-01-13T08:03:54.326Z,3.53
2018-01-13T08:04:53.734Z,3.55
2018-01-13T08:05:54.472Z,3.53
2018-01-13T08:06:53.753Z,3.53
2018-01-13T08:07:53.963Z,3.55
2018-01-13T08:08:55.274Z,3.56
2018-01-13T08:09:53.599Z,3.59
2018-01-13T08:10:53.911Z,3.59
2018-01-13T08:11:54.524Z,3.60
2018-01-13T08:12:54.032Z,3.60
2018-01-13T08:13:54.934Z,3.60
2018-01-13T08:14:54.259Z,3.60
2018-01-13T08:15:54.052Z,3.63
2018-01-13T08:17:15.543Z,3.66
2018-01-13T08:18:16.169Z,3.68
2018-01-13T08:19:15.785Z,3.70
2018-01-13T08:20:16.485Z,3.73
2018-01-13T08:21:16.232Z,3.74
2018-01-13T08:22:16.581Z,3.74
2018-01-13T08:23:16.143Z,3.77
2018-01-13T08:24:16.103Z,3.78
2018-01-13T08:25:37.300Z,3.81
2018-01-13T08:26:37.933Z,3.86
2018-01-13T08:27:59.189Z,3.87
2018-01-13T08:29:00.013Z,3.91
2018-01-13T08:29:59.825Z,3.92
2018-01-13T08:30:59.500Z,3.95
2018-01-13T08:32:20.251Z,4.01
2018-01-13T08:33:42.472Z,4.04
2018-01-13T08:34:43.030Z,4.10
2018-01-13T08:35:42.446Z,4.12
2018-01-13T08:36:43.288Z,4.17
2018-01-13T08:37:43.181Z,4.20
2018-01-13T08:38:42.850Z,4.24
2018-01-13T08:39:43.716Z,4.30
2018-01-13T08:40:42.601Z,4.32
2018-01-13T08:41:43.302Z,4.34
2018-01-13T08:42:42.840Z,4.38
2018-01-13T08:43:42.638Z,4.40
2018-01-13T08:44:43.341Z,4.44
2018-01-13T08:45:42.811Z,4.48
2018-01-13T08:46:42.700Z,4.53
2018-01-13T08:48:04.430Z,4.59
2018-01-13T08:49:05.522Z,4.62
2018-01-13T08:50:04.274Z,4.66
2018-01-13T08:51:27.693Z,4.70
2018-01-13T08:52:28.044Z,4.73
2018-01-13T08:53:27.855Z,4.77
2018-01-13T08:54:28.155Z,4.84
2018-01-13T08:55:27.587Z,4.93
2018-01-13T08:56:27.880Z,5.00
2018-01-13T08:57:49.112Z,5.11
2018-01-13T08:58:49.582Z,5.14
2018-01-13T08:59:48.806Z,5.15
2018-01-13T09:00:49.392Z,5.10
2018-01-13T09:01:48.897Z,5.07
2018-01-13T09:02:49.692Z,5.00
2018-01-13T09:03:49.396Z,4.90
2018-01-13T09:04:48.636Z,4.84
2018-01-13T09:05:48.993Z,4.80
2018-01-13T09:06:49.422Z,4.75
2018-01-13T09:07:49.062Z,4.71
2018-01-13T09:09:11.584Z,4.71
2018-01-13T09:10:10.952Z,4.71
2018-01-13T09:11:11.758Z,4.70
2018-01-13T09:12:11.340Z,4.74
2018-01-13T09:13:11.370Z,4.80
2018-01-13T09:14:11.145Z,4.86
2018-01-13T09:15:32.705Z,4.80
2018-01-13T09:16:33.737Z,4.84
2018-01-13T09:17:33.670Z,4.87
2018-01-13T09:18:33.184Z,4.86
2018-01-13T09:19:32.924Z,4.82
2018-01-13T09:20:33.186Z,4.84
2018-01-13T09:21:32.371Z,4.86
2018-01-13T09:22:33.399Z,4.86
2018-01-13T09:23:33.626Z,4.87
2018-01-13T09:24:34.118Z,4.90
2018-01-13T09:25:32.595Z,4.96
2018-01-13T09:26:33.187Z,5.00
2018-01-13T09:27:32.989Z,5.02
2018-01-13T09:28:32.759Z,5.02
2018-01-13T09:29:33.209Z,5.02
2018-01-13T09:30:33.006Z,5.02
2018-01-13T09:31:33.015Z,5.07
2018-01-13T09:32:32.475Z,5.07
2018-01-13T09:33:32.954Z,5.07
2018-01-13T09:34:32.505Z,5.05
2018-01-13T09:35:33.062Z,5.05
2018-01-13T09:36:33.043Z,5.02
2018-01-13T09:37:32.688Z,4.99
2018-01-13T09:38:33.271Z,4.92
2018-01-13T09:39:33.166Z,4.90
2018-01-13T09:40:32.532Z,4.93
2018-01-13T09:41:32.968Z,4.93
2018-01-13T09:42:32.827Z,4.97
2018-01-13T09:43:33.023Z,4.99
2018-01-13T09:44:55.974Z,5.00
2018-01-13T09:46:17.769Z,5.02
2018-01-13T09:47:18.518Z,5.05
2018-01-13T09:48:18.499Z,5.08
2018-01-13T09:49:18.109Z,5.11
2018-01-13T09:50:17.418Z,5.11
2018-01-13T09:51:18.428Z,5.15
2018-01-13T09:52:18.418Z,5.18
2018-01-13T09:53:18.257Z,5.21
2018-01-13T09:54:18.065Z,5.28
2018-01-13T09:55:18.249Z,5.32
2018-01-13T09:56:40.287Z,5.35
2018-01-13T09:57:38.654Z,5.36
2018-01-13T09:59:00.484Z,5.44
2018-01-13T10:00:01.388Z,5.44
2018-01-13T10:01:01.352Z,5.47
2018-01-13T10:02:00.952Z,5.47
2018-01-13T10:03:00.503Z,5.47
2018-01-13T10:04:01.018Z,5.46
2018-01-13T10:05:00.556Z,5.44
2018-01-13T10:06:01.465Z,5.50
2018-01-13T10:07:01.118Z,5.48
2018-01-13T10:08:22.446Z,5.50
2018-01-13T10:09:23.251Z,5.51
2018-01-13T10:10:22.887Z,5.57
2018-01-13T10:11:23.098Z,5.62
2018-01-13T10:12:22.517Z,5.62
2018-01-13T10:13:23.508Z,5.61
2018-01-13T10:14:22.988Z,5.57
2018-01-13T10:15:22.491Z,5.56
2018-01-13T10:16:22.874Z,5.59
2018-01-13T10:17:23.356Z,5.56
2018-01-13T10:18:44.316Z,5.51
2018-01-13T10:19:44.225Z,5.51
2018-01-13T10:21:07.301Z,5.51
2018-01-13T10:22:07.244Z,5.53
2018-01-13T10:23:07.245Z,5.53
2018-01-13T10:24:07.321Z,5.53
2018-01-13T10:25:07.379Z,5.54
2018-01-13T10:26:07.017Z,5.54
2018-01-13T10:27:07.079Z,5.66
2018-01-13T10:28:08.126Z,5.68
2018-01-13T10:29:06.947Z,5.69
2018-01-13T10:30:09.125Z,5.65
2018-01-13T10:31:07.166Z,5.64
2018-01-13T10:32:08.484Z,5.69
2018-01-13T10:33:07.282Z,5.72
2018-01-13T10:34:07.252Z,5.73
2018-01-13T10:35:07.202Z,5.80
2018-01-13T10:36:07.037Z,5.86
2018-01-13T10:37:08.897Z,5.89
2018-01-13T10:38:07.730Z,5.94
2018-01-13T10:39:07.109Z,6.09
2018-01-13T10:40:06.650Z,6.19
2018-01-13T10:41:07.063Z,6.24
2018-01-13T10:42:07.690Z,6.22
2018-01-13T10:43:07.492Z,6.26
2018-01-13T10:44:07.264Z,6.42
2018-01-13T10:45:06.960Z,6.41
2018-01-13T10:46:08.196Z,6.45
2018-01-13T10:47:07.510Z,6.42
2018-01-13T10:48:07.112Z,6.48
2018-01-13T10:49:06.604Z,6.49
2018-01-13T10:50:07.668Z,6.48
2018-01-13T10:51:07.688Z,6.46
2018-01-13T10:52:07.527Z,6.57
2018-01-13T10:53:07.204Z,6.78
2018-01-13T10:54:07.158Z,6.92
2018-01-13T10:55:07.104Z,6.89
2018-01-13T10:56:06.544Z,6.74
2018-01-13T10:57:06.880Z,6.67
2018-01-13T10:58:07.646Z,6.66
2018-01-13T10:59:07.521Z,6.81
2018-01-13T11:00:07.128Z,7.13
2018-01-13T11:01:07.019Z,7.31
2018-01-13T11:02:07.605Z,7.40
2018-01-13T11:03:06.900Z,7.56
2018-01-13T11:04:08.120Z,7.75
2018-01-13T11:05:06.974Z,8.01
2018-01-13T11:06:07.672Z,8.00
2018-01-13T11:07:07.282Z,7.66
2018-01-13T11:08:07.364Z,7.35
2018-01-13T11:09:06.847Z,7.21
2018-01-13T11:10:07.153Z,6.92
2018-01-13T11:11:07.104Z,6.75
2018-01-13T11:12:07.895Z,7.11
2018-01-13T11:13:07.293Z,7.47
2018-01-13T11:14:08.133Z,7.95
2018-01-13T11:15:07.277Z,7.75
2018-01-13T11:16:07.273Z,8.12
2018-01-13T11:17:06.912Z,8.87
2018-01-13T11:18:08.062Z,9.06
2018-01-13T11:19:07.449Z,9.58
2018-01-13T11:20:06.919Z,10.38
2018-01-13T11:21:08.753Z,9.95
2018-01-13T11:22:07.095Z,9.14
2018-01-13T11:23:06.749Z,8.71
2018-01-13T11:24:29.726Z,8.06
2018-01-13T11:25:29.921Z,7.66
2018-01-13T11:27:13.757Z,7.23
2018-01-13T11:28:34.992Z,7.15
2018-01-13T11:29:35.567Z,7.14
2018-01-13T11:30:35.304Z,7.21
2018-01-13T11:31:35.877Z,7.07
2018-01-13T11:32:35.573Z,6.93
2018-01-13T11:33:36.251Z,6.79
2018-01-13T11:34:58.991Z,6.54
2018-01-13T11:35:59.123Z,6.48
2018-01-13T11:36:58.868Z,6.51
2018-01-13T11:37:59.024Z,6.46
2018-01-13T11:38:58.959Z,6.52
2018-01-13T11:39:59.304Z,6.66
2018-01-13T11:40:57.805Z,6.74
2018-01-13T11:41:58.310Z,6.82
2018-01-13T11:42:58.557Z,6.85
2018-01-13T11:43:58.318Z,6.82
2018-01-13T11:44:58.115Z,6.82
2018-01-13T11:45:58.810Z,6.78
2018-01-13T11:46:58.484Z,6.84
2018-01-13T11:47:58.328Z,6.75
2018-01-13T11:48:58.624Z,6.69
2018-01-13T11:49:59.096Z,6.60
2018-01-13T11:50:59.064Z,6.49
2018-01-13T11:51:58.622Z,6.45
2018-01-13T11:52:58.459Z,6.39
2018-01-13T11:53:58.590Z,6.33
2018-01-13T11:54:58.430Z,6.30
2018-01-13T11:56:19.720Z,6.24
2018-01-13T11:57:20.178Z,6.33
2018-01-13T11:58:20.295Z,6.36
2018-01-13T11:59:19.955Z,6.39
2018-01-13T12:00:20.777Z,6.38
2018-01-13T12:01:20.643Z,6.31
2018-01-13T12:02:20.229Z,6.31
2018-01-13T12:03:19.591Z,6.28
2018-01-13T12:04:20.824Z,6.22
2018-01-13T12:05:21.288Z,6.22
2018-01-13T12:06:19.847Z,6.16
2018-01-13T12:07:20.095Z,6.11
2018-01-13T12:08:20.931Z,6.08
2018-01-13T12:09:20.297Z,6.07
2018-01-13T12:10:20.026Z,5.99
2018-01-13T12:11:20.965Z,5.98
2018-01-13T12:12:21.748Z,5.97
2018-01-13T12:13:20.937Z,5.94
2018-01-13T12:14:21.093Z,5.93
2018-01-13T12:15:20.961Z,5.94
2018-01-13T12:16:20.446Z,5.98
2018-01-13T12:17:20.864Z,5.94
2018-01-13T12:18:21.182Z,5.94
2018-01-13T12:19:20.615Z,5.94
2018-01-13T12:20:20.410Z,5.94
2018-01-13T12:21:47.955Z,5.97
2018-01-13T12:22:49.275Z,5.97
2018-01-13T12:23:50.136Z,5.97
2018-01-13T12:24:49.592Z,5.98
2018-01-13T12:25:48.511Z,5.93
2018-01-13T12:26:53.644Z,5.90
2018-01-13T12:27:48.454Z,5.91
2018-01-13T12:28:48.259Z,5.97
2018-01-13T12:29:49.369Z,5.97
2018-01-13T12:30:48.797Z,5.98
2018-01-13T12:31:52.737Z,6.02
2018-01-13T12:32:49.433Z,6.02
2018-01-13T12:33:49.644Z,6.07
2018-01-13T12:34:48.476Z,6.04
2018-01-13T12:35:48.129Z,6.01
2018-01-13T12:36:49.051Z,6.01
2018-01-13T12:37:49.078Z,6.01
2018-01-13T12:38:49.158Z,6.04
2018-01-13T12:40:32.782Z,6.07
2018-01-13T12:41:56.320Z,6.12
2018-01-13T12:43:18.021Z,6.07
2018-01-13T12:44:18.427Z,6.07
2018-01-13T12:45:18.797Z,6.04
2018-01-13T12:46:18.547Z,6.04
2018-01-13T12:47:19.778Z,5.99
2018-01-13T12:48:41.027Z,5.97
2018-01-13T12:49:46.594Z,5.98
2018-01-13T12:50:41.592Z,5.98
2018-01-13T12:51:41.187Z,5.97
2018-01-13T12:52:42.220Z,5.99
2018-01-13T12:54:02.077Z,5.98
2018-01-13T12:55:02.576Z,5.97
2018-01-13T12:56:25.923Z,5.97
2018-01-13T12:57:24.285Z,5.98
2018-01-13T12:58:26.208Z,5.99
2018-01-13T12:59:25.011Z,6.01
2018-01-13T13:00:24.829Z,5.98
2018-01-13T13:01:26.313Z,5.94
2018-01-13T13:02:47.442Z,5.93
2018-01-13T13:03:49.306Z,5.90
2018-01-13T13:04:49.995Z,5.91
2018-01-13T13:05:49.524Z,5.91
2018-01-13T13:06:49.902Z,5.89
2018-01-13T13:07:49.358Z,5.84
2018-01-13T13:08:49.925Z,5.87
2018-01-13T13:09:49.833Z,5.86
2018-01-13T13:10:49.501Z,5.83
2018-01-13T13:11:49.136Z,5.84
2018-01-13T13:12:50.005Z,5.89
2018-01-13T13:13:49.337Z,5.91
2018-01-13T13:14:49.857Z,5.90
2018-01-13T13:15:49.592Z,5.89
2018-01-13T13:16:50.052Z,5.84
2018-01-13T13:17:49.613Z,5.80
2018-01-13T13:18:50.364Z,5.80
2018-01-13T13:19:50.798Z,5.75
2018-01-13T13:20:49.173Z,5.75
2018-01-13T13:21:49.848Z,5.68
2018-01-13T13:22:49.348Z,5.64
2018-01-13T13:23:49.867Z,5.61
2018-01-13T13:24:49.920Z,5.59
2018-01-13T13:25:49.615Z,5.57
2018-01-13T13:26:50.928Z,5.53
2018-01-13T13:27:49.511Z,5.47
2018-01-13T13:28:49.719Z,5.47
2018-01-13T13:29:49.776Z,5.41
2018-01-13T13:30:49.415Z,5.33
2018-01-13T13:31:49.509Z,5.29
2018-01-13T13:32:49.294Z,5.26
2018-01-13T13:33:49.703Z,5.29
2018-01-13T13:34:50.422Z,5.30
2018-01-13T13:35:49.723Z,5.30
2018-01-13T13:36:48.895Z,5.28
2018-01-13T13:37:50.593Z,5.26
2018-01-13T13:38:49.874Z,5.26
2018-01-13T13:39:49.885Z,5.20
2018-01-13T13:40:49.800Z,5.21
2018-01-13T13:41:49.864Z,5.32
2018-01-13T13:42:50.207Z,5.32
2018-01-13T13:43:50.455Z,5.28